createdAt,value
2017-01-14T00:00:23.987Z,2.22
2017-01-14T00:01:24.154Z,2.26
2017-01-14T00:02:23.920Z,2.31
2017-01-14T00:03:24.322Z,2.22
2017-01-14T00:04:24.227Z,2.18
2017-01-14T00:05:24.810Z,2.26
2017-01-14T00:06:23.892Z,2.35
2017-01-14T00:07:24.648Z,2.35
2017-01-14T00:08:25.139Z,2.43
2017-01-14T00:09:24.700Z,2.44
2017-01-14T00:10:24.330Z,2.44
2017-01-14T00:11:25.534Z,2.42
2017-01-14T00:12:24.840Z,2.38
2017-01-14T00:13:24.405Z,2.35
2017-01-14T00:14:25.900Z,2.36
2017-01-14T00:15:25.000Z,2.35
2017-01-14T00:16:24.858Z,2.29
2017-01-14T00:17:24.971Z,2.33
2017-01-14T00:18:24.292Z,2.24
2017-01-14T00:19:24.178Z,2.17
2017-01-14T00:20:24.930Z,2.2
2017-01-14T00:21:25.261Z,2.26
2017-01-14T00:22:25.071Z,2.31
2017-01-14T00:23:24.460Z,2.31
2017-01-14T00:24:25.640Z,2.18
2017-01-14T00:25:23.892Z,2.17
2017-01-14T00:26:25.390Z,2.33
2017-01-14T00:27:24.031Z,2.31
2017-01-14T00:28:24.852Z,2.29
2017-01-14T00:29:25.071Z,2.25
2017-01-14T00:30:24.471Z,2.18
2017-01-14T00:31:24.893Z,2.17
2017-01-14T00:32:25.143Z,2.31
2017-01-14T00:33:24.988Z,2.42
2017-01-14T00:34:25.335Z,2.44
2017-01-14T00:35:25.138Z,2.38
2017-01-14T00:36:24.281Z,2.43
2017-01-14T00:37:24.821Z,2.44
2017-01-14T00:38:25.187Z,2.53
2017-01-14T00:39:25.247Z,2.43
2017-01-14T00:40:24.850Z,2.51
2017-01-14T00:41:25.739Z,2.46
2017-01-14T00:42:24.086Z,2.46
2017-01-14T00:43:25.236Z,2.5
2017-01-14T00:44:25.031Z,2.43
2017-01-14T00:45:24.476Z,2.47
2017-01-14T00:46:24.606Z,2.42
2017-01-14T00:47:25.124Z,2.43
2017-01-14T00:48:25.280Z,2.53
2017-01-14T00:49:24.847Z,2.51
2017-01-14T00:50:25.447Z,2.43
2017-01-14T00:51:25.507Z,2.49
2017-01-14T00:52:25.925Z,2.56
2017-01-14T00:53:27.571Z,2.54
2017-01-14T00:54:26.041Z,2.54
2017-01-14T00:55:25.598Z,2.54
2017-01-14T00:56:25.766Z,2.44
2017-01-14T00:57:25.370Z,2.42
2017-01-14T00:58:25.487Z,2.31
2017-01-14T00:59:24.816Z,2.26
2017-01-14T01:00:24.454Z,2.35
2017-01-14T01:01:25.497Z,2.25
2017-01-14T01:02:25.478Z,2.29
2017-01-14T01:03:25.488Z,2.31
2017-01-14T01:04:24.906Z,2.2
2017-01-14T01:05:25.073Z,2.28
2017-01-14T01:06:26.381Z,2.38
2017-01-14T01:07:25.600Z,2.33
2017-01-14T01:08:25.328Z,2.32
2017-01-14T01:09:24.804Z,2.35
2017-01-14T01:10:25.958Z,2.33
2017-01-14T01:11:25.003Z,2.47
2017-01-14T01:12:26.186Z,2.42
2017-01-14T01:13:24.953Z,2.39
2017-01-14T01:14:25.667Z,2.44
2017-01-14T01:15:26.649Z,2.5
2017-01-14T01:16:25.319Z,2.53
2017-01-14T01:17:25.696Z,2.54
2017-01-14T01:18:24.957Z,2.46
2017-01-14T01:19:25.646Z,2.62
2017-01-14T01:20:25.173Z,2.67
2017-01-14T01:21:25.250Z,2.65
2017-01-14T01:22:25.491Z,2.65
2017-01-14T01:23:25.642Z,2.65
2017-01-14T01:24:25.441Z,2.74
2017-01-14T01:25:25.697Z,2.61
2017-01-14T01:26:26.194Z,2.68
2017-01-14T01:27:25.333Z,2.74
2017-01-14T01:28:25.117Z,2.6
2017-01-14T01:29:25.459Z,2.57
2017-01-14T01:30:25.561Z,2.74
2017-01-14T01:31:25.151Z,2.8
2017-01-14T01:32:25.562Z,2.71
2017-01-14T01:33:24.961Z,2.72
2017-01-14T01:34:25.478Z,2.8
2017-01-14T01:35:25.480Z,2.72
2017-01-14T01:36:25.288Z,2.82
2017-01-14T01:37:25.153Z,2.83
2017-01-14T01:38:26.111Z,2.8
2017-01-14T01:39:25.905Z,3
2017-01-14T01:40:25.920Z,2.89
2017-01-14T01:41:25.229Z,3.1
2017-01-14T01:42:25.646Z,2.98
2017-01-14T01:43:25.083Z,3.07
2017-01-14T01:44:25.398Z,3.03
2017-01-14T01:45:25.192Z,3.11
2017-01-14T01:46:25.001Z,3.1
2017-01-14T01:47:25.741Z,3.08
2017-01-14T01:48:25.611Z,3.08
2017-01-14T01:49:25.653Z,3.1
2017-01-14T01:50:26.476Z,3.1
2017-01-14T01:51:25.301Z,3.11
2017-01-14T01:52:25.232Z,3.16
2017-01-14T01:53:25.725Z,3.22
2017-01-14T01:54:25.902Z,3.21
2017-01-14T01:55:26.247Z,3.19
2017-01-14T01:56:25.682Z,3.13
2017-01-14T01:57:26.048Z,3.19
2017-01-14T01:58:25.380Z,3.16
2017-01-14T01:59:26.161Z,3.13
2017-01-14T02:00:26.025Z,3.22
2017-01-14T02:01:25.877Z,3.16
2017-01-14T02:02:26.215Z,3.13
2017-01-14T02:03:26.919Z,3.14
2017-01-14T02:04:25.504Z,3.13
2017-01-14T02:05:26.150Z,3.16
2017-01-14T02:06:25.366Z,3.13
2017-01-14T02:07:25.968Z,3.13
2017-01-14T02:08:25.956Z,3.18
2017-01-14T02:09:25.273Z,3.1
2017-01-14T02:10:26.141Z,3.16
2017-01-14T02:11:26.320Z,3.11
2017-01-14T02:12:25.892Z,3.22
2017-01-14T02:13:26.695Z,3.11
2017-01-14T02:14:26.749Z,3.23
2017-01-14T02:15:26.402Z,3.13
2017-01-14T02:16:26.732Z,3.18
2017-01-14T02:17:25.915Z,3.13
2017-01-14T02:18:26.013Z,3.29
2017-01-14T02:19:26.611Z,3.14
2017-01-14T02:20:25.535Z,3.18
2017-01-14T02:21:26.079Z,3.21
2017-01-14T02:22:26.224Z,3.23
2017-01-14T02:23:26.011Z,3.19
2017-01-14T02:24:25.353Z,3.19
2017-01-14T02:25:25.715Z,3.22
2017-01-14T02:26:26.689Z,3.19
2017-01-14T02:27:25.299Z,3.16
2017-01-14T02:28:25.987Z,3.26
2017-01-14T02:29:26.486Z,3.18
2017-01-14T02:30:26.076Z,3.14
2017-01-14T02:31:25.567Z,3.13
2017-01-14T02:32:25.933Z,3.13
2017-01-14T02:33:26.718Z,3.05
2017-01-14T02:34:26.235Z,3.08
2017-01-14T02:35:26.875Z,3.08
2017-01-14T02:36:25.655Z,3.14
2017-01-14T02:37:26.572Z,3.07
2017-01-14T02:38:26.428Z,3.14
2017-01-14T02:39:26.627Z,3.11
2017-01-14T02:40:26.355Z,3.11
2017-01-14T02:41:26.011Z,3.19
2017-01-14T02:42:25.841Z,3.13
2017-01-14T02:43:26.145Z,3.18
2017-01-14T02:44:25.879Z,3.16
2017-01-14T02:45:26.112Z,3.07
2017-01-14T02:46:26.326Z,3.07
2017-01-14T02:47:26.543Z,3.1
2017-01-14T02:48:26.442Z,3.08
2017-01-14T02:49:26.436Z,3.11
2017-01-14T02:50:26.506Z,3.1
2017-01-14T02:51:26.721Z,3.07
2017-01-14T02:52:26.700Z,3.04
2017-01-14T02:53:25.733Z,2.97
2017-01-14T02:54:26.695Z,2.92
2017-01-14T02:55:26.887Z,3.01
2017-01-14T02:56:25.994Z,2.89
2017-01-14T02:57:27.095Z,2.87
2017-01-14T02:58:26.439Z,2.93
2017-01-14T02:59:27.201Z,2.86
2017-01-14T03:00:26.308Z,2.95
2017-01-14T03:01:25.966Z,3.01
2017-01-14T03:02:26.612Z,3.01
2017-01-14T03:03:27.603Z,3.04
2017-01-14T03:04:26.222Z,2.98
2017-01-14T03:05:26.342Z,3.08
2017-01-14T03:06:27.595Z,3.1
2017-01-14T03:07:26.913Z,3.04
2017-01-14T03:08:26.294Z,3.05
2017-01-14T03:09:26.746Z,3.1
2017-01-14T03:10:26.089Z,3.1
2017-01-14T03:11:26.748Z,3.04
2017-01-14T03:12:27.141Z,3.14
2017-01-14T03:13:26.486Z,3.13
2017-01-14T03:14:26.397Z,3.14
2017-01-14T03:15:27.204Z,3.08
2017-01-14T03:16:26.348Z,3.07
2017-01-14T03:17:26.648Z,3.13
2017-01-14T03:18:26.315Z,3.11
2017-01-14T03:19:27.042Z,3.18
2017-01-14T03:20:26.241Z,3.08
2017-01-14T03:21:26.565Z,3.13
2017-01-14T03:22:26.093Z,3.14
2017-01-14T03:23:26.284Z,3.08
2017-01-14T03:24:26.462Z,3.14
2017-01-14T03:25:26.772Z,3.16
2017-01-14T03:26:27.340Z,3.14
2017-01-14T03:27:27.841Z,3.1
2017-01-14T03:28:28.068Z,3.1
2017-01-14T03:29:26.657Z,3.08
2017-01-14T03:30:26.366Z,3.14
2017-01-14T03:31:27.668Z,3.13
2017-01-14T03:32:26.186Z,3.14
2017-01-14T03:33:26.905Z,3.22
2017-01-14T03:34:26.681Z,3.13
2017-01-14T03:35:26.844Z,3.07
2017-01-14T03:36:26.652Z,3.14
2017-01-14T03:37:26.640Z,3.11
2017-01-14T03:38:26.558Z,3.07
2017-01-14T03:39:27.158Z,3.08
2017-01-14T03:40:27.966Z,3.08
2017-01-14T03:41:27.004Z,3.04
2017-01-14T03:42:28.223Z,3.07
2017-01-14T03:43:26.652Z,2.98
2017-01-14T03:44:26.430Z,3.04
2017-01-14T03:45:27.285Z,2.97
2017-01-14T03:46:27.071Z,2.95
2017-01-14T03:47:26.406Z,2.95
2017-01-14T03:48:26.865Z,3.03
2017-01-14T03:49:27.457Z,2.9
2017-01-14T03:50:27.782Z,2.93
2017-01-14T03:51:27.371Z,2.89
2017-01-14T03:52:27.358Z,2.89
2017-01-14T03:53:27.265Z,2.82
2017-01-14T03:54:27.176Z,2.86
2017-01-14T03:55:27.200Z,2.8
2017-01-14T03:56:27.735Z,2.83
2017-01-14T03:57:26.797Z,2.87
2017-01-14T03:58:27.453Z,2.8
2017-01-14T03:59:27.721Z,2.8
2017-01-14T04:00:26.765Z,2.83
2017-01-14T04:01:27.467Z,2.83
2017-01-14T04:02:26.724Z,2.77
2017-01-14T04:03:26.581Z,2.77
2017-01-14T04:04:27.567Z,2.69
2017-01-14T04:05:26.932Z,2.8
2017-01-14T04:06:26.715Z,2.77
2017-01-14T04:07:27.430Z,2.77
2017-01-14T04:08:27.252Z,2.68
2017-01-14T04:09:27.203Z,2.67
2017-01-14T04:10:27.332Z,2.69
2017-01-14T04:11:28.831Z,2.64
2017-01-14T04:12:27.828Z,2.65
2017-01-14T04:13:27.164Z,2.62
2017-01-14T04:14:27.470Z,2.53
2017-01-14T04:15:27.069Z,2.64
2017-01-14T04:16:27.258Z,2.61
2017-01-14T04:17:26.785Z,2.6
2017-01-14T04:18:27.593Z,2.53
2017-01-14T04:19:27.019Z,2.61
2017-01-14T04:20:27.600Z,2.6
2017-01-14T04:21:27.279Z,2.61
2017-01-14T04:22:27.478Z,2.62
2017-01-14T04:23:28.147Z,2.51
2017-01-14T04:24:27.184Z,2.57
2017-01-14T04:25:28.194Z,2.57
2017-01-14T04:26:27.475Z,2.54
2017-01-14T04:27:27.046Z,2.47
2017-01-14T04:28:27.051Z,2.46
2017-01-14T04:29:27.652Z,2.5
2017-01-14T04:30:28.731Z,2.53
2017-01-14T04:31:27.823Z,2.38
2017-01-14T04:32:27.721Z,2.42
2017-01-14T04:33:27.946Z,2.47
2017-01-14T04:34:27.638Z,2.44
2017-01-14T04:35:27.778Z,2.39
2017-01-14T04:36:27.210Z,2.38
2017-01-14T04:37:27.963Z,2.33
2017-01-14T04:38:27.731Z,2.38
2017-01-14T04:39:28.436Z,2.33
2017-01-14T04:40:27.123Z,2.36
2017-01-14T04:41:27.340Z,2.39
2017-01-14T04:42:28.310Z,2.31
2017-01-14T04:43:27.494Z,2.36
2017-01-14T04:44:27.505Z,2.33
2017-01-14T04:45:27.626Z,2.35
2017-01-14T04:46:28.133Z,2.33
2017-01-14T04:47:27.712Z,2.29
2017-01-14T04:48:28.016Z,2.36
2017-01-14T04:49:27.972Z,2.46
2017-01-14T04:50:28.150Z,2.43
2017-01-14T04:51:27.651Z,2.43
2017-01-14T04:52:27.434Z,2.42
2017-01-14T04:53:27.647Z,2.49
2017-01-14T04:54:28.222Z,2.46
2017-01-14T04:55:28.034Z,2.51
2017-01-14T04:56:27.515Z,2.51
2017-01-14T04:57:27.678Z,2.54
2017-01-14T04:58:27.375Z,2.5
2017-01-14T04:59:27.976Z,2.47
2017-01-14T05:00:28.347Z,2.43
2017-01-14T05:01:28.292Z,2.44
2017-01-14T05:02:28.308Z,2.49
2017-01-14T05:03:28.092Z,2.39
2017-01-14T05:04:27.671Z,2.44
2017-01-14T05:05:28.763Z,2.43
2017-01-14T05:06:27.966Z,2.46
2017-01-14T05:07:27.865Z,2.39
2017-01-14T05:08:28.438Z,2.5
2017-01-14T05:09:28.488Z,2.49
2017-01-14T05:10:28.834Z,2.5
2017-01-14T05:11:28.243Z,2.42
2017-01-14T05:12:28.377Z,2.46
2017-01-14T05:13:28.582Z,2.42
2017-01-14T05:14:28.349Z,2.47
2017-01-14T05:15:27.688Z,2.43
2017-01-14T05:16:28.996Z,2.39
2017-01-14T05:17:27.763Z,2.33
2017-01-14T05:18:28.963Z,2.33
2017-01-14T05:19:28.747Z,2.44
2017-01-14T05:20:28.110Z,2.46
2017-01-14T05:21:27.912Z,2.39
2017-01-14T05:22:28.632Z,2.44
2017-01-14T05:23:28.731Z,2.43
2017-01-14T05:24:29.073Z,2.43
2017-01-14T05:25:28.207Z,2.44
2017-01-14T05:26:28.508Z,2.51
2017-01-14T05:27:28.624Z,2.5
2017-01-14T05:28:28.646Z,2.57
2017-01-14T05:29:27.944Z,2.61
2017-01-14T05:30:28.971Z,2.62
2017-01-14T05:31:27.884Z,2.62
2017-01-14T05:32:28.130Z,2.68
2017-01-14T05:33:29.390Z,2.6
2017-01-14T05:34:28.389Z,2.79
2017-01-14T05:35:28.845Z,2.72
2017-01-14T05:36:28.414Z,2.71
2017-01-14T05:37:28.440Z,2.82
2017-01-14T05:38:30.058Z,2.85
2017-01-14T05:39:28.555Z,2.8
2017-01-14T05:40:29.490Z,2.82
2017-01-14T05:41:29.831Z,2.83
2017-01-14T05:42:29.395Z,2.86
2017-01-14T05:43:29.591Z,2.9
2017-01-14T05:44:29.468Z,2.85
2017-01-14T05:45:29.834Z,2.86
2017-01-14T05:46:28.484Z,2.86
2017-01-14T05:47:30.700Z,2.95
2017-01-14T05:48:28.618Z,2.86
2017-01-14T05:49:29.831Z,2.83
2017-01-14T05:50:29.410Z,2.79
2017-01-14T05:51:30.480Z,2.82
2017-01-14T05:52:30.503Z,2.83
2017-01-14T05:53:28.915Z,2.79
2017-01-14T05:54:29.465Z,2.75
2017-01-14T05:55:28.832Z,2.68
2017-01-14T05:56:29.052Z,2.77
2017-01-14T05:57:28.892Z,2.57
2017-01-14T05:58:29.418Z,2.68
2017-01-14T05:59:29.610Z,2.57
2017-01-14T06:00:29.519Z,2.67
2017-01-14T06:01:32.159Z,2.69
2017-01-14T06:02:29.264Z,2.65
2017-01-14T06:03:28.613Z,2.61
2017-01-14T06:04:29.190Z,2.62
2017-01-14T06:05:29.348Z,2.64
2017-01-14T06:06:28.952Z,2.61
2017-01-14T06:07:30.814Z,2.62
2017-01-14T06:08:30.756Z,2.62
2017-01-14T06:09:30.799Z,2.6
2017-01-14T06:10:29.901Z,2.57
2017-01-14T06:11:29.407Z,2.67
2017-01-14T06:12:31.028Z,2.62
2017-01-14T06:13:30.036Z,2.71
2017-01-14T06:14:30.198Z,2.74
2017-01-14T06:15:29.498Z,2.68
2017-01-14T06:16:29.233Z,2.75
2017-01-14T06:17:29.657Z,2.72
2017-01-14T06:18:30.442Z,2.72
2017-01-14T06:19:31.013Z,2.6
2017-01-14T06:20:30.316Z,2.61
2017-01-14T06:21:30.295Z,2.72
2017-01-14T06:22:30.222Z,2.77
2017-01-14T06:23:30.662Z,2.74
2017-01-14T06:24:30.329Z,2.75
2017-01-14T06:25:29.476Z,2.74
2017-01-14T06:26:29.698Z,2.72
2017-01-14T06:27:30.573Z,2.61
2017-01-14T06:28:30.023Z,2.71
2017-01-14T06:29:29.065Z,2.71
2017-01-14T06:30:30.370Z,2.71
2017-01-14T06:31:29.875Z,2.74
2017-01-14T06:32:29.289Z,2.69
2017-01-14T06:33:30.079Z,2.67
2017-01-14T06:34:30.360Z,2.68
2017-01-14T06:35:29.439Z,2.68
2017-01-14T06:36:28.992Z,2.77
2017-01-14T06:37:30.392Z,2.72
2017-01-14T06:38:32.636Z,2.71
2017-01-14T06:39:30.011Z,2.74
2017-01-14T06:40:30.315Z,2.62
2017-01-14T06:41:30.550Z,2.6
2017-01-14T06:42:30.436Z,2.64
2017-01-14T06:43:31.145Z,2.53
2017-01-14T06:44:29.432Z,2.67
2017-01-14T06:45:30.974Z,2.57
2017-01-14T06:46:30.766Z,2.68
2017-01-14T06:47:29.967Z,2.64
2017-01-14T06:48:30.888Z,2.65
2017-01-14T06:49:30.300Z,2.64
2017-01-14T06:50:30.280Z,2.64
2017-01-14T06:51:29.234Z,2.5
2017-01-14T06:52:29.437Z,2.5
2017-01-14T06:53:30.303Z,2.51
2017-01-14T06:54:30.649Z,2.47
2017-01-14T06:55:29.248Z,2.56
2017-01-14T06:56:31.728Z,2.53
2017-01-14T06:57:29.367Z,2.53
2017-01-14T06:58:30.510Z,2.51
2017-01-14T06:59:30.678Z,2.56
2017-01-14T07:00:30.662Z,2.51
2017-01-14T07:01:30.365Z,2.49
2017-01-14T07:02:30.498Z,2.46
2017-01-14T07:03:30.873Z,2.5
2017-01-14T07:04:30.950Z,2.53
2017-01-14T07:05:29.740Z,2.39
2017-01-14T07:06:30.323Z,2.49
2017-01-14T07:07:31.712Z,2.46
2017-01-14T07:08:31.968Z,2.46
2017-01-14T07:09:30.190Z,2.44
2017-01-14T07:10:28.692Z,2.43
2017-01-14T07:11:38.067Z,2.44
2017-01-14T07:12:39.108Z,2.42
2017-01-14T07:13:38.384Z,2.43
2017-01-14T07:14:31.150Z,2.5
2017-01-14T07:15:30.011Z,2.5
2017-01-14T07:16:29.939Z,2.44
2017-01-14T07:17:31.379Z,2.47
2017-01-14T07:19:29.739Z,2.44
2017-01-14T07:20:29.771Z,2.44
2017-01-14T07:21:29.780Z,2.31
2017-01-14T07:22:30.027Z,2.38
2017-01-14T07:23:30.191Z,2.38
2017-01-14T07:24:29.958Z,2.36
2017-01-14T07:25:29.453Z,2.36
2017-01-14T07:26:30.902Z,2.29
2017-01-14T07:27:29.866Z,2.44
2017-01-14T07:28:30.147Z,2.49
2017-01-14T07:29:31.376Z,2.46
2017-01-14T07:30:30.727Z,2.46
2017-01-14T07:31:31.348Z,2.38
2017-01-14T07:32:30.011Z,2.36
2017-01-14T07:33:29.740Z,2.31
2017-01-14T07:34:30.432Z,2.29
2017-01-14T07:35:30.260Z,2.31
2017-01-14T07:36:29.657Z,2.28
2017-01-14T07:37:30.878Z,2.31
2017-01-14T07:38:30.300Z,2.29
2017-01-14T07:39:30.218Z,2.25
2017-01-14T07:40:30.258Z,2.26
2017-01-14T07:41:35.743Z,2.25
2017-01-14T07:42:32.020Z,2.22
2017-01-14T07:43:36.905Z,2.29
2017-01-14T07:44:33.312Z,2.22
2017-01-14T07:45:32.325Z,2.22
2017-01-14T07:46:33.337Z,2.2
2017-01-14T07:47:31.852Z,2.2
2017-01-14T07:48:32.188Z,2.15
2017-01-14T07:49:34.497Z,2.22
2017-01-14T07:50:36.510Z,2.14
2017-01-14T07:51:39.174Z,2.15
2017-01-14T07:52:32.643Z,2.2
2017-01-14T07:53:34.142Z,2.18
2017-01-14T07:54:35.262Z,2.32
2017-01-14T07:55:33.506Z,2.38
2017-01-14T07:56:32.679Z,2.38
2017-01-14T07:57:32.517Z,2.36
2017-01-14T07:58:32.715Z,2.28
2017-01-14T07:59:35.208Z,2.38
2017-01-14T08:00:31.369Z,2.38
2017-01-14T08:01:34.007Z,2.31
2017-01-14T08:02:35.218Z,2.39
2017-01-14T08:03:34.008Z,2.39
2017-01-14T08:04:35.452Z,2.39
2017-01-14T08:05:36.604Z,2.47
2017-01-14T08:06:33.452Z,2.42
2017-01-14T08:07:32.641Z,2.38
2017-01-14T08:08:32.740Z,2.36
2017-01-14T08:09:34.150Z,2.36
2017-01-14T08:10:33.547Z,2.31
2017-01-14T08:11:33.408Z,2.43
2017-01-14T08:12:34.114Z,2.42
2017-01-14T08:13:36.813Z,2.32
2017-01-14T08:14:33.740Z,2.38
2017-01-14T08:15:34.030Z,2.39
2017-01-14T08:16:38.037Z,2.46
2017-01-14T08:17:35.869Z,2.47
2017-01-14T08:18:33.927Z,2.42
2017-01-14T08:19:35.097Z,2.46
2017-01-14T08:20:35.200Z,2.53
2017-01-14T08:21:35.035Z,2.42
2017-01-14T08:22:35.217Z,2.5
2017-01-14T08:23:33.082Z,2.5
2017-01-14T08:24:35.845Z,2.46
2017-01-14T08:25:34.461Z,2.49
2017-01-14T08:26:34.985Z,2.49
2017-01-14T08:27:35.369Z,2.5
2017-01-14T08:28:33.292Z,2.5
2017-01-14T08:29:29.628Z,2.46
2017-01-14T08:30:29.939Z,2.51
2017-01-14T08:31:30.333Z,2.51
2017-01-14T08:32:30.404Z,2.51
2017-01-14T08:33:30.142Z,2.5
2017-01-14T08:34:30.567Z,2.49
2017-01-14T08:35:31.455Z,2.47
2017-01-14T08:36:31.052Z,2.46
2017-01-14T08:37:30.554Z,2.5
2017-01-14T08:38:30.193Z,2.47
2017-01-14T08:39:31.044Z,2.49
2017-01-14T08:40:31.176Z,2.49
2017-01-14T08:41:30.161Z,2.51
2017-01-14T08:42:31.019Z,2.51
2017-01-14T08:43:31.068Z,2.47
2017-01-14T08:44:31.725Z,2.54
2017-01-14T08:45:30.390Z,2.51
2017-01-14T08:46:30.173Z,2.53
2017-01-14T08:47:31.020Z,2.47
2017-01-14T08:48:30.591Z,2.5
2017-01-14T08:49:31.118Z,2.42
2017-01-14T08:50:30.860Z,2.49
2017-01-14T08:51:31.517Z,2.51
2017-01-14T08:52:30.900Z,2.47
2017-01-14T08:53:30.824Z,2.51
2017-01-14T08:54:31.581Z,2.47
2017-01-14T08:55:30.806Z,2.47
2017-01-14T08:56:31.939Z,2.43
2017-01-14T08:57:30.769Z,2.47
2017-01-14T08:58:30.281Z,2.47
2017-01-14T08:59:30.883Z,2.39
2017-01-14T09:00:30.985Z,2.49
2017-01-14T09:01:30.819Z,2.42
2017-01-14T09:02:30.489Z,2.39
2017-01-14T09:03:30.754Z,2.5
2017-01-14T09:04:31.525Z,2.43
2017-01-14T09:05:31.370Z,2.5
2017-01-14T09:06:30.536Z,2.5
2017-01-14T09:07:30.870Z,2.49
2017-01-14T09:08:30.877Z,2.43
2017-01-14T09:09:30.851Z,2.49
2017-01-14T09:10:30.583Z,2.51
2017-01-14T09:11:31.441Z,2.53
2017-01-14T09:12:31.117Z,2.54
2017-01-14T09:13:30.740Z,2.65
2017-01-14T09:14:30.859Z,2.62
2017-01-14T09:15:30.754Z,2.53
2017-01-14T09:16:31.633Z,2.5
2017-01-14T09:17:30.603Z,2.67
2017-01-14T09:18:31.738Z,2.53
2017-01-14T09:19:30.721Z,2.64
2017-01-14T09:20:30.804Z,2.85
2017-01-14T09:21:30.871Z,2.95
2017-01-14T09:22:30.846Z,3.04
2017-01-14T09:23:31.499Z,3.08
2017-01-14T09:24:30.843Z,3.11
2017-01-14T09:25:31.364Z,3.03
2017-01-14T09:26:31.347Z,3.13
2017-01-14T09:27:30.793Z,3.04
2017-01-14T09:28:31.178Z,3.01
2017-01-14T09:29:30.822Z,2.9
2017-01-14T09:30:31.048Z,2.98
2017-01-14T09:31:31.351Z,2.92
2017-01-14T09:32:31.436Z,3.04
2017-01-14T09:33:31.603Z,3.04
2017-01-14T09:34:31.583Z,3.04
2017-01-14T09:35:30.554Z,3.05
2017-01-14T09:36:30.903Z,2.97
2017-01-14T09:37:32.559Z,2.98
2017-01-14T09:38:31.014Z,2.95
2017-01-14T09:39:31.492Z,3
2017-01-14T09:40:31.321Z,2.85
2017-01-14T09:41:32.407Z,2.82
2017-01-14T09:42:30.962Z,2.8
2017-01-14T09:43:31.192Z,2.85
2017-01-14T09:44:32.112Z,2.8
2017-01-14T09:45:32.187Z,2.8
2017-01-14T09:46:31.486Z,2.8
2017-01-14T09:47:31.004Z,2.77
2017-01-14T09:48:31.076Z,2.82
2017-01-14T09:49:32.263Z,2.83
2017-01-14T09:50:31.396Z,2.92
2017-01-14T09:51:31.215Z,3.1
2017-01-14T09:52:31.542Z,3.29
2017-01-14T09:53:32.995Z,3.58
2017-01-14T09:54:31.559Z,3.7
2017-01-14T09:55:31.364Z,3.98
2017-01-14T09:56:31.331Z,3.98
2017-01-14T09:57:32.569Z,3.87
2017-01-14T09:58:31.900Z,3.62
2017-01-14T09:59:32.277Z,3.45
2017-01-14T10:00:32.332Z,3.44
2017-01-14T10:01:31.319Z,3.51
2017-01-14T10:02:31.621Z,3.62
2017-01-14T10:03:32.781Z,3.83
2017-01-14T10:04:31.479Z,3.91
2017-01-14T10:05:31.664Z,3.99
2017-01-14T10:06:31.443Z,4.13
2017-01-14T10:07:31.504Z,4.08
2017-01-14T10:08:32.192Z,4.12
2017-01-14T10:09:31.603Z,4.1
2017-01-14T10:10:31.692Z,4.06
2017-01-14T10:11:32.259Z,3.95
2017-01-14T10:12:33.104Z,3.88
2017-01-14T10:13:31.279Z,3.83
2017-01-14T10:14:31.375Z,3.98
2017-01-14T10:15:32.254Z,3.96
2017-01-14T10:16:32.582Z,3.98
2017-01-14T10:17:32.678Z,3.86
2017-01-14T10:18:31.517Z,3.73
2017-01-14T10:19:31.928Z,3.78
2017-01-14T10:20:32.500Z,3.99
2017-01-14T10:21:31.316Z,4.16
2017-01-14T10:22:32.271Z,4.32
2017-01-14T10:23:31.677Z,4.44
2017-01-14T10:24:31.933Z,4.5
2017-01-14T10:25:31.706Z,4.62
2017-01-14T10:26:31.915Z,4.74
2017-01-14T10:27:32.389Z,4.71
2017-01-14T10:28:32.597Z,4.77
2017-01-14T10:29:31.570Z,4.82
2017-01-14T10:30:33.414Z,4.82
2017-01-14T10:31:32.207Z,4.86
2017-01-14T10:32:33.000Z,4.9
2017-01-14T10:33:32.454Z,4.7
2017-01-14T10:34:31.888Z,4.77
2017-01-14T10:35:31.778Z,4.82
2017-01-14T10:36:31.837Z,4.59
2017-01-14T10:37:32.071Z,4.41
2017-01-14T10:38:31.540Z,4.37
2017-01-14T10:39:32.517Z,4.48
2017-01-14T10:40:32.540Z,4.45
2017-01-14T10:41:32.110Z,4.44
2017-01-14T10:42:33.055Z,4.52
2017-01-14T10:43:33.123Z,4.52
2017-01-14T10:44:32.712Z,4.41
2017-01-14T10:45:32.479Z,4.28
2017-01-14T10:46:32.733Z,4.3
2017-01-14T10:47:33.215Z,4.16
2017-01-14T10:48:32.187Z,4.16
2017-01-14T10:49:32.335Z,4.17
2017-01-14T10:50:32.737Z,4.1
2017-01-14T10:51:32.900Z,4.17
2017-01-14T10:52:32.696Z,4.3
2017-01-14T10:53:32.465Z,4.2
2017-01-14T10:54:32.415Z,4.35
2017-01-14T10:55:32.644Z,4.37
2017-01-14T10:56:33.346Z,4.44
2017-01-14T10:57:32.337Z,4.4
2017-01-14T10:58:31.928Z,4.41
2017-01-14T10:59:32.335Z,4.58
2017-01-14T11:00:32.931Z,4.49
2017-01-14T11:01:32.820Z,4.6
2017-01-14T11:02:33.034Z,4.84
2017-01-14T11:03:32.850Z,4.96
2017-01-14T11:04:32.559Z,5.08
2017-01-14T11:05:33.377Z,4.96
2017-01-14T11:06:32.766Z,5.04
2017-01-14T11:07:32.592Z,5.14
2017-01-14T11:08:32.859Z,5.26
2017-01-14T11:09:32.788Z,5.38
2017-01-14T11:10:32.091Z,5.56
2017-01-14T11:11:33.321Z,5.46
2017-01-14T11:12:32.298Z,5.29
2017-01-14T11:13:32.671Z,5.29
2017-01-14T11:14:32.699Z,5.41
2017-01-14T11:15:33.116Z,5.56
2017-01-14T11:16:33.317Z,5.68
2017-01-14T11:17:33.870Z,5.69
2017-01-14T11:18:32.447Z,5.46
2017-01-14T11:19:32.727Z,5.38
2017-01-14T11:20:32.168Z,5.35
2017-01-14T11:21:33.033Z,5.12
2017-01-14T11:22:32.456Z,5.04
2017-01-14T11:23:32.706Z,5.04
2017-01-14T11:24:32.880Z,4.73
2017-01-14T11:25:32.855Z,4.75
2017-01-14T11:26:33.892Z,4.49
2017-01-14T11:27:32.400Z,4.42
2017-01-14T11:28:32.627Z,4.38
2017-01-14T11:29:32.527Z,4.48
2017-01-14T11:30:32.664Z,4.38
2017-01-14T11:31:33.845Z,4.48
2017-01-14T11:32:32.677Z,4.44
2017-01-14T11:33:33.128Z,4.44
2017-01-14T11:34:33.109Z,4.5
2017-01-14T11:35:32.906Z,4.4
2017-01-14T11:36:32.705Z,4.38
2017-01-14T11:37:32.903Z,4.35
2017-01-14T11:38:32.928Z,4.35
2017-01-14T11:39:33.674Z,4.49
2017-01-14T11:40:33.558Z,4.42
2017-01-14T11:41:32.663Z,4.5
2017-01-14T11:42:33.353Z,4.55
2017-01-14T11:43:33.456Z,4.52
2017-01-14T11:44:32.937Z,4.45
2017-01-14T11:45:32.753Z,4.44
2017-01-14T11:46:34.191Z,4.44
2017-01-14T11:47:33.639Z,4.48
2017-01-14T11:48:32.707Z,4.41
2017-01-14T11:49:32.866Z,4.34
2017-01-14T11:50:33.082Z,4.31
2017-01-14T11:51:33.544Z,3.98
2017-01-14T11:52:33.760Z,4.02
2017-01-14T11:53:33.483Z,4.01
2017-01-14T11:54:33.098Z,4.08
2017-01-14T11:55:33.131Z,4.06
2017-01-14T11:56:33.968Z,4.1
2017-01-14T11:57:33.394Z,4.01
2017-01-14T11:58:35.349Z,3.99
2017-01-14T11:59:33.547Z,3.88
2017-01-14T12:00:33.223Z,3.96
2017-01-14T12:01:33.293Z,3.87
2017-01-14T12:02:33.197Z,3.91
2017-01-14T12:03:33.302Z,3.87
2017-01-14T12:04:33.812Z,3.92
2017-01-14T12:05:33.792Z,3.84
2017-01-14T12:06:33.032Z,3.78
2017-01-14T12:07:33.231Z,3.91
2017-01-14T12:08:33.692Z,3.94
2017-01-14T12:09:33.864Z,3.95
2017-01-14T12:10:33.900Z,3.88
2017-01-14T12:11:33.453Z,3.96
2017-01-14T12:12:33.455Z,3.96
2017-01-14T12:13:33.263Z,3.87
2017-01-14T12:14:33.513Z,3.87
2017-01-14T12:15:33.915Z,3.83
2017-01-14T12:16:33.121Z,3.73
2017-01-14T12:17:33.892Z,3.81
2017-01-14T12:18:33.510Z,3.73
2017-01-14T12:19:34.506Z,3.73
2017-01-14T12:20:33.638Z,3.7
2017-01-14T12:21:33.657Z,3.78
2017-01-14T12:22:33.240Z,3.92
2017-01-14T12:23:34.110Z,3.98
2017-01-14T12:24:34.043Z,3.94
2017-01-14T12:25:34.254Z,3.99
2017-01-14T12:26:33.316Z,3.95
2017-01-14T12:27:33.329Z,4.01
2017-01-14T12:28:34.264Z,4.04
2017-01-14T12:29:34.369Z,3.96
2017-01-14T12:30:33.841Z,3.94
2017-01-14T12:31:34.059Z,3.92
2017-01-14T12:32:34.443Z,3.94
2017-01-14T12:33:34.932Z,3.98
2017-01-14T12:34:33.725Z,3.8
2017-01-14T12:35:33.987Z,3.77
2017-01-14T12:36:33.478Z,3.68
2017-01-14T12:37:34.662Z,3.74
2017-01-14T12:38:34.257Z,3.88
2017-01-14T12:39:33.473Z,3.98
2017-01-14T12:40:33.706Z,4.02
2017-01-14T12:41:34.016Z,3.94
2017-01-14T12:42:33.447Z,3.81
2017-01-14T12:43:34.328Z,3.73
2017-01-14T12:44:33.932Z,3.83
2017-01-14T12:45:33.609Z,3.87
2017-01-14T12:46:34.262Z,3.95
2017-01-14T12:47:34.152Z,3.95
2017-01-14T12:48:33.959Z,3.96
2017-01-14T12:49:34.876Z,3.94
2017-01-14T12:50:34.367Z,3.84
2017-01-14T12:51:35.914Z,3.88
2017-01-14T12:52:34.739Z,3.81
2017-01-14T12:53:34.512Z,3.96
2017-01-14T12:54:34.196Z,3.87
2017-01-14T12:55:35.020Z,3.73
2017-01-14T12:56:34.711Z,3.73
2017-01-14T12:57:33.914Z,3.65
2017-01-14T12:58:33.748Z,3.59
2017-01-14T12:59:34.818Z,3.56
2017-01-14T13:00:34.354Z,3.68
2017-01-14T13:01:34.747Z,3.6
2017-01-14T13:02:34.020Z,3.6
2017-01-14T13:03:33.935Z,3.62
2017-01-14T13:04:34.646Z,3.63
2017-01-14T13:05:34.454Z,3.63
2017-01-14T13:06:34.386Z,3.55
2017-01-14T13:07:33.982Z,3.55
2017-01-14T13:08:33.916Z,3.51
2017-01-14T13:09:34.361Z,3.36
2017-01-14T13:10:34.639Z,3.44
2017-01-14T13:11:34.318Z,3.4
2017-01-14T13:12:33.776Z,3.31
2017-01-14T13:13:35.319Z,3.32
2017-01-14T13:14:35.115Z,3.28
2017-01-14T13:15:34.763Z,3.28
2017-01-14T13:16:34.237Z,3.31
2017-01-14T13:17:34.929Z,3.29
2017-01-14T13:18:34.554Z,3.23
2017-01-14T13:19:34.226Z,3.26
2017-01-14T13:20:34.783Z,3.14
2017-01-14T13:21:35.173Z,3.22
2017-01-14T13:22:34.752Z,3.23